Time,TemperatureF,DewpointF,PressureIn,WindDirection,WindDirectionDegrees,WindSpeedMPH,WindSpeedGustMPH,Humidity,HourlyPrecipIn,Conditions,Clouds,dailyrainin,SoftwareType,DateUTC
2013-05-13 00:03:00,54.7,52.3,29.94,NNW,329,3.0,8.3,92,0.00,,,-99.99,FreeWX-Wi 1.01,2013-05-13 07:03:00,
2013-05-13 00:13:00,54.5,52.2,29.94,NNW,332,4.0,6.7,92,0.00,,,-99.99,FreeWX-Wi 1.01,2013-05-13 07:13:00,
2013-05-13 00:23:00,54.7,52.3,29.94,NNW,337,4.0,6.7,92,0.00,,,-99.99,FreeWX-Wi 1.01,2013-05-13 07:23:00,
2013-05-13 00:33:00,54.5,52.2,29.94,NNW,340,4.0,7.6,92,0.00,,,-99.99,FreeWX-Wi 1.01,2013-05-13 07:33:00,
2013-05-13 00:43:00,54.5,52.2,29.94,NNW,330,4.0,8.1,92,0.00,,,-99.99,FreeWX-Wi 1.01,2013-05-13 07:43:00,
2013-05-13 00:53:00,54.7,52.3,29.94,NW,324,4.0,8.3,92,0.00,,,-99.99,FreeWX-Wi 1.01,2013-05-13 07:53:00,
2013-05-13 01:03:00,54.9,52.5,29.91,NW,315,3.0,4.0,92,0.00,,,-99.99,FreeWX-Wi 1.01,2013-05-13 08:03:00,
2013-05-13 01:13:00,54.9,52.5,29.91,NW,313,2.0,7.6,92,0.00,,,-99.99,FreeWX-Wi 1.01,2013-05-13 08:13:00,
2013-05-13 01:23:00,54.9,52.5,29.94,NW,322,2.0,6.3,92,0.00,,,-99.99,FreeWX-Wi 1.01,2013-05-13 08:23:00,
2013-05-13 01:33:00,54.9,52.3,29.94,NW,319,3.0,6.3,91,0.00,,,-99.99,FreeWX-Wi 1.01,2013-05-13 08:33:00,
2013-05-13 01:43:00,54.9,52.3,29.94,NW,312,2.0,5.8,91,0.00,,,-99.99,FreeWX-Wi 1.01,2013-05-13 08:43:00,
2013-05-13 01:53:00,54.3,51.4,29.94,NW,319,3.0,8.1,90,0.00,,,-99.99,FreeWX-Wi 1.01,2013-05-13 08:53:00,
2013-05-13 02:03:00,54.3,51.8,29.94,NW,319,2.0,5.4,91,0.00,,,-99.99,FreeWX-Wi 1.01,2013-05-13 09:03:00,
2013-05-13 02:13:00,54.1,51.6,29.94,NW,313,2.0,8.1,91,0.00,,,-99.99,FreeWX-Wi 1.01,2013-05-13 09:13:00,
2013-05-13 02:23:00,54.1,51.6,29.94,NW,309,2.0,7.2,91,0.00,,,-99.99,FreeWX-Wi 1.01,2013-05-13 09:23:00,
2013-05-13 02:33:00,54.1,51.6,29.94,NW,308,2.0,5.4,91,0.00,,,-99.99,FreeWX-Wi 1.01,2013-05-13 09:33:00,
2013-05-13 02:43:00,54.1,51.6,29.94,NW,310,1.0,4.9,91,0.00,,,-99.99,FreeWX-Wi 1.01,2013-05-13 09:43:00,
2013-05-13 02:53:00,54.1,51.6,29.94,NW,304,1.0,4.9,91,0.00,,,-99.99,FreeWX-Wi 1.01,2013-05-13 09:53:00,
2013-05-13 03:03:00,54.0,51.4,29.94,NW,314,1.0,5.4,91,0.00,,,-99.99,FreeWX-Wi 1.01,2013-05-13 10:03:00,
2013-05-13 03:13:00,54.0,51.4,29.94,NW,310,2.0,7.6,91,0.00,,,-99.99,FreeWX-Wi 1.01,2013-05-13 10:13:00,
2013-05-13 03:23:00,53.8,51.3,29.94,NW,314,2.0,5.8,91,0.00,,,-99.99,FreeWX-Wi 1.01,2013-05-13 10:23:00,
2013-05-13 03:33:00,53.8,51.3,29.94,NW,321,1.0,3.1,91,0.00,,,-99.99,FreeWX-Wi 1.01,2013-05-13 10:33:00,
2013-05-13 03:43:00,53.8,51.3,29.94,North,-999,0.0,3.1,91,0.00,,,-99.99,FreeWX-Wi 1.01,2013-05-13 10:43:00,
2013-05-13 03:53:00,53.8,51.3,29.91,North,-999,0.0,3.6,91,0.00,,,-99.99,FreeWX-Wi 1.01,2013-05-13 10:53:00,
2013-05-13 04:03:00,53.8,50.9,29.91,North,-999,0.0,4.9,90,0.00,,,-99.99,FreeWX-Wi 1.01,2013-05-13 11:03:00,
2013-05-13 04:13:00,53.8,50.9,29.91,North,-999,0.0,0.0,90,0.00,,,-99.99,FreeWX-Wi 1.01,2013-05-13 11:13:00,
2013-05-13 04:23:00,54.0,51.1,29.94,North,-999,0.0,0.0,90,0.00,,,-99.99,FreeWX-Wi 1.01,2013-05-13 11:23:00,
2013-05-13 04:33:00,54.0,51.1,29.94,North,-999,0.0,0.0,90,0.00,,,-99.99,FreeWX-Wi 1.01,2013-05-13 11:33:00,
2013-05-13 04:43:00,54.1,51.3,29.94,North,-999,0.0,0.0,90,0.00,,,-99.99,FreeWX-Wi 1.01,2013-05-13 11:43:00,
2013-05-13 04:53:00,54.3,51.4,29.94,North,-999,0.0,4.5,90,0.00,,,-99.99,FreeWX-Wi 1.01,2013-05-13 11:53:00,
2013-05-13 05:03:00,54.7,52.2,29.94,North,-999,0.0,5.8,91,0.00,,,-99.99,FreeWX-Wi 1.01,2013-05-13 12:03:00,
2013-05-13 05:13:00,54.9,52.5,29.94,NW,314,1.0,4.9,92,0.00,,,-99.99,FreeWX-Wi 1.01,2013-05-13 12:13:00,
2013-05-13 05:23:00,54.9,52.5,29.94,NW,311,2.0,7.6,92,0.00,,,-99.99,FreeWX-Wi 1.01,2013-05-13 12:23:00,
2013-05-13 05:33:00,54.9,52.9,29.94,WNW,300,1.0,5.8,93,0.00,,,-99.99,FreeWX-Wi 1.01,2013-05-13 12:33:00,
2013-05-13 05:43:00,54.9,52.9,29.94,WNW,285,1.0,4.9,93,0.00,,,-99.99,FreeWX-Wi 1.01,2013-05-13 12:43:00,
2013-05-13 05:53:00,54.9,52.9,29.94,West,271,1.0,4.0,93,0.00,,,-99.99,FreeWX-Wi 1.01,2013-05-13 12:53:00,
2013-05-13 06:03:00,54.9,52.9,29.94,West,265,1.0,6.3,93,0.00,,,-99.99,FreeWX-Wi 1.01,2013-05-13 13:03:00,
2013-05-13 06:13:00,54.9,52.9,29.94,WNW,282,1.0,4.9,93,0.00,,,-99.99,FreeWX-Wi 1.01,2013-05-13 13:13:00,
2013-05-13 06:23:00,54.9,52.9,29.94,WNW,291,2.0,5.4,93,0.00,,,-99.99,FreeWX-Wi 1.01,2013-05-13 13:23:00,
2013-05-13 06:33:00,54.9,53.2,29.94,NW,311,2.0,7.2,94,0.00,,,-99.99,FreeWX-Wi 1.01,2013-05-13 13:33:00,
2013-05-13 06:43:00,54.7,53.1,29.94,NW,315,2.0,4.9,94,0.00,,,-99.99,FreeWX-Wi 1.01,2013-05-13 13:43:00,
2013-05-13 06:53:00,54.5,52.9,29.94,NNW,328,2.0,7.2,94,0.00,,,-99.99,FreeWX-Wi 1.01,2013-05-13 13:53:00,
2013-05-13 07:03:00,54.3,52.7,29.94,NW,324,2.0,7.6,94,0.00,,,-99.99,FreeWX-Wi 1.01,2013-05-13 14:03:00,
2013-05-13 07:13:00,54.1,52.7,29.94,NNW,327,2.0,5.4,95,0.00,,,-99.99,FreeWX-Wi 1.01,2013-05-13 14:13:00,
2013-05-13 07:23:00,54.3,52.9,29.94,NW,323,2.0,7.2,95,0.00,,,-99.99,FreeWX-Wi 1.01,2013-05-13 14:23:00,
2013-05-13 07:33:00,54.3,52.9,29.97,NW,321,2.0,6.7,95,0.00,,,-99.99,FreeWX-Wi 1.01,2013-05-13 14:33:00,
2013-05-13 07:43:00,54.3,52.9,29.97,NW,318,3.0,8.1,95,0.00,,,-99.99,FreeWX-Wi 1.01,2013-05-13 14:43:00,
2013-05-13 07:53:00,54.3,52.9,29.97,NW,314,3.0,8.3,95,0.00,,,-99.99,FreeWX-Wi 1.01,2013-05-13 14:53:00,
2013-05-13 08:03:00,54.7,53.2,29.97,NW,321,3.0,7.6,95,0.00,,,-99.99,FreeWX-Wi 1.01,2013-05-13 15:03:00,
2013-05-13 08:13:00,54.7,53.1,29.97,NNW,334,3.0,6.3,94,0.00,,,-99.99,FreeWX-Wi 1.01,2013-05-13 15:13:00,
2013-05-13 08:23:00,55.0,53.4,29.97,NNW,332,2.0,5.8,94,0.00,,,-99.99,FreeWX-Wi 1.01,2013-05-13 15:23:00,
2013-05-13 08:33:00,55.0,53.1,29.97,NNW,332,2.0,7.6,93,0.00,,,-99.99,FreeWX-Wi 1.01,2013-05-13 15:33:00,
2013-05-13 08:43:00,55.4,53.1,29.97,WNW,303,2.0,5.4,92,0.00,,,-99.99,FreeWX-Wi 1.01,2013-05-13 15:43:00,
2013-05-13 08:53:00,55.4,53.1,29.97,NW,304,2.0,6.3,92,0.00,,,-99.99,FreeWX-Wi 1.01,2013-05-13 15:53:00,
2013-05-13 09:03:00,55.8,53.4,29.97,NW,308,2.0,7.2,92,0.00,,,-99.99,FreeWX-Wi 1.01,2013-05-13 16:03:00,
2013-05-13 09:13:00,56.1,53.6,29.97,NW,318,2.0,8.7,91,0.00,,,-99.99,FreeWX-Wi 1.01,2013-05-13 16:13:00,
2013-05-13 09:23:00,56.3,53.1,29.97,NNW,329,2.0,6.3,89,0.00,,,-99.99,FreeWX-Wi 1.01,2013-05-13 16:23:00,
2013-05-13 09:33:00,56.5,52.9,29.97,NNW,328,3.0,10.5,88,0.00,,,-99.99,FreeWX-Wi 1.01,2013-05-13 16:33:00,
2013-05-13 09:43:00,56.7,52.5,29.97,NNW,336,4.0,10.1,86,0.00,,,-99.99,FreeWX-Wi 1.01,2013-05-13 16:43:00,
2013-05-13 09:53:00,57.0,52.5,30.00,NNW,336,4.0,10.5,85,0.00,,,-99.99,FreeWX-Wi 1.01,2013-05-13 16:53:00,
2013-05-13 10:03:00,57.4,52.3,30.00,NNW,339,3.0,8.7,83,0.00,,,-99.99,FreeWX-Wi 1.01,2013-05-13 17:03:00,
2013-05-13 10:13:00,58.1,52.3,30.00,NNW,339,3.0,8.1,81,0.00,,,-99.99,FreeWX-Wi 1.01,2013-05-13 17:13:00,
2013-05-13 10:23:00,58.3,51.4,30.00,NNW,340,3.0,11.0,78,0.00,,,-99.99,FreeWX-Wi 1.01,2013-05-13 17:23:00,
2013-05-13 10:33:00,58.8,51.3,30.00,NNW,336,4.0,8.7,76,0.00,,,-99.99,FreeWX-Wi 1.01,2013-05-13 17:33:00,
2013-05-13 10:43:00,59.4,51.8,30.00,NW,326,4.0,9.6,76,0.00,,,-99.99,FreeWX-Wi 1.01,2013-05-13 17:43:00,
2013-05-13 10:53:00,59.9,51.6,30.00,NW,320,4.0,8.1,74,0.00,,,-99.99,FreeWX-Wi 1.01,2013-05-13 17:53:00,
2013-05-13 11:03:00,60.6,51.6,30.00,NW,325,4.0,10.1,72,0.00,,,-99.99,FreeWX-Wi 1.01,2013-05-13 18:03:00,
2013-05-13 11:13:00,61.3,51.4,30.00,NNW,332,4.0,7.2,70,0.00,,,-99.99,FreeWX-Wi 1.01,2013-05-13 18:13:00,
2013-05-13 11:23:00,62.1,50.9,30.00,NNW,336,4.0,8.3,67,0.00,,,-99.99,FreeWX-Wi 1.01,2013-05-13 18:23:00,
2013-05-13 11:33:00,63.5,51.4,30.00,NNW,333,3.0,6.3,65,0.00,,,-99.99,FreeWX-Wi 1.01,2013-05-13 18:33:00,
2013-05-13 11:43:00,64.8,50.5,30.00,NNW,331,3.0,5.8,60,0.00,,,-99.99,FreeWX-Wi 1.01,2013-05-13 18:43:00,
2013-05-13 11:53:00,64.2,50.0,30.00,NNW,330,3.0,8.1,60,0.00,,,-99.99,FreeWX-Wi 1.01,2013-05-13 18:53:00,
2013-05-13 12:03:00,64.6,50.4,30.00,NNW,329,3.0,5.8,60,0.00,,,-99.99,FreeWX-Wi 1.01,2013-05-13 19:03:00,
2013-05-13 12:13:00,65.3,49.6,30.00,NNW,331,3.0,8.1,57,0.00,,,-99.99,FreeWX-Wi 1.01,2013-05-13 19:13:00,
2013-05-13 12:23:00,65.1,50.4,29.97,NW,322,3.0,10.1,59,0.00,,,-99.99,FreeWX-Wi 1.01,2013-05-13 19:23:00,
2013-05-13 12:33:00,65.3,50.2,29.97,NW,313,4.0,11.0,58,0.00,,,-99.99,FreeWX-Wi 1.01,2013-05-13 19:33:00,
2013-05-13 12:43:00,65.5,50.4,29.97,NW,319,4.0,8.3,58,0.00,,,-99.99,FreeWX-Wi 1.01,2013-05-13 19:43:00,
2013-05-13 12:53:00,65.3,50.2,29.97,NNW,328,4.0,8.7,58,0.00,,,-99.99,FreeWX-Wi 1.01,2013-05-13 19:53:00,
2013-05-13 13:03:00,64.8,50.5,29.97,NNW,327,4.0,9.2,60,0.00,,,-99.99,FreeWX-Wi 1.01,2013-05-13 20:03:00,
2013-05-13 13:13:00,65.3,50.2,29.97,WNW,299,4.0,12.3,58,0.00,,,-99.99,FreeWX-Wi 1.01,2013-05-13 20:13:00,
2013-05-13 13:23:00,65.3,50.5,29.97,WNW,293,4.0,8.1,59,0.00,,,-99.99,FreeWX-Wi 1.01,2013-05-13 20:23:00,
2013-05-13 13:33:00,65.1,51.3,29.97,WNW,291,4.0,8.7,61,0.00,,,-99.99,FreeWX-Wi 1.01,2013-05-13 20:33:00,
2013-05-13 13:43:00,65.8,50.7,29.97,NW,318,4.0,8.1,58,0.00,,,-99.99,FreeWX-Wi 1.01,2013-05-13 20:43:00,
2013-05-13 13:53:00,65.1,50.9,29.94,NNW,341,4.0,10.5,60,0.00,,,-99.99,FreeWX-Wi 1.01,2013-05-13 20:53:00,
2013-05-13 14:03:00,64.4,50.7,29.94,NW,322,4.0,10.5,61,0.00,,,-99.99,FreeWX-Wi 1.01,2013-05-13 21:03:00,
2013-05-13 14:13:00,65.8,50.7,29.94,NW,305,3.0,5.8,58,0.00,,,-99.99,FreeWX-Wi 1.01,2013-05-13 21:13:00,
2013-05-13 14:23:00,66.4,49.6,29.94,NW,315,3.0,6.3,55,0.00,,,-99.99,FreeWX-Wi 1.01,2013-05-13 21:23:00,
2013-05-13 14:33:00,66.6,49.5,29.94,NW,314,3.0,8.3,54,0.00,,,-99.99,FreeWX-Wi 1.01,2013-05-13 21:33:00,
2013-05-13 14:43:00,66.9,49.6,29.94,NNW,329,3.0,7.2,54,0.00,,,-99.99,FreeWX-Wi 1.01,2013-05-13 21:43:00,
2013-05-13 14:53:00,67.6,49.5,29.94,NNW,338,3.0,6.3,52,0.00,,,-99.99,FreeWX-Wi 1.01,2013-05-13 21:53:00,
2013-05-13 15:03:00,68.2,48.7,29.94,NNW,333,3.0,6.3,50,0.00,,,-99.99,FreeWX-Wi 1.01,2013-05-13 22:03:00,
2013-05-13 15:13:00,68.2,48.7,29.94,ENE,72,2.0,6.3,50,0.00,,,-99.99,FreeWX-Wi 1.01,2013-05-13 22:13:00,
2013-05-13 15:23:00,67.6,48.4,29.94,SSW,200,2.0,6.3,50,0.00,,,-99.99,FreeWX-Wi 1.01,2013-05-13 22:23:00,
2013-05-13 15:33:00,67.5,48.7,29.91,SW,228,3.0,8.1,51,0.00,,,-99.99,FreeWX-Wi 1.01,2013-05-13 22:33:00,
2013-05-13 15:43:00,67.3,48.6,29.91,SSW,210,3.0,6.3,51,0.00,,,-99.99,FreeWX-Wi 1.01,2013-05-13 22:43:00,
2013-05-13 15:53:00,66.9,48.7,29.91,SW,217,3.0,7.6,52,0.00,,,-99.99,FreeWX-Wi 1.01,2013-05-13 22:53:00,
2013-05-13 16:03:00,67.1,48.4,29.91,South,181,3.0,11.0,51,0.00,,,-99.99,FreeWX-Wi 1.01,2013-05-13 23:03:00,
2013-05-13 16:13:00,66.7,48.6,29.91,SSE,159,4.0,13.2,52,0.00,,,-99.99,FreeWX-Wi 1.01,2013-05-13 23:13:00,
2013-05-13 16:23:00,66.2,48.6,29.91,SSE,154,4.0,11.4,53,0.00,,,-99.99,FreeWX-Wi 1.01,2013-05-13 23:23:00,
2013-05-13 16:33:00,65.5,49.3,29.91,SSE,163,4.0,8.1,56,0.00,,,-99.99,FreeWX-Wi 1.01,2013-05-13 23:33:00,
2013-05-13 16:43:00,65.3,49.3,29.91,SSW,193,3.0,15.0,56,0.00,,,-99.99,FreeWX-Wi 1.01,2013-05-13 23:43:00,
2013-05-13 16:53:00,65.3,49.3,29.88,NW,315,4.0,10.5,56,0.00,,,-99.99,FreeWX-Wi 1.01,2013-05-13 23:53:00,
2013-05-13 17:03:00,64.6,50.0,29.88,NW,315,4.0,12.8,59,0.00,,,-99.99,FreeWX-Wi 1.01,2013-05-14 00:03:00,
2013-05-13 17:13:00,64.4,49.8,29.88,NW,305,5.0,10.5,59,0.00,,,-99.99,FreeWX-Wi 1.01,2013-05-14 00:13:00,
2013-05-13 17:23:00,64.0,49.5,29.88,NW,326,5.0,10.5,59,0.00,,,-99.99,FreeWX-Wi 1.01,2013-05-14 00:23:00,
2013-05-13 17:33:00,63.1,49.5,29.88,NNW,332,6.0,15.0,61,0.00,,,-99.99,FreeWX-Wi 1.01,2013-05-14 00:33:00,
2013-05-13 17:43:00,62.6,48.9,29.88,NNW,339,7.0,13.2,61,0.00,,,-99.99,FreeWX-Wi 1.01,2013-05-14 00:43:00,
2013-05-13 17:53:00,62.2,49.1,29.88,NNW,339,8.0,15.4,62,0.00,,,-99.99,FreeWX-Wi 1.01,2013-05-14 00:53:00,
2013-05-13 18:03:00,62.1,48.9,29.85,NNW,341,8.0,12.8,62,0.00,,,-99.99,FreeWX-Wi 1.01,2013-05-14 01:03:00,
2013-05-13 18:13:00,62.1,48.4,29.85,NNW,337,7.0,11.0,61,0.00,,,-99.99,FreeWX-Wi 1.01,2013-05-14 01:13:00,
2013-05-13 18:23:00,61.7,47.7,29.85,NNW,338,6.0,11.0,60,0.00,,,-99.99,FreeWX-Wi 1.01,2013-05-14 01:23:00,
2013-05-13 18:33:00,61.3,47.3,29.85,NNW,335,6.0,14.1,60,0.00,,,-99.99,FreeWX-Wi 1.01,2013-05-14 01:33:00,
2013-05-13 18:43:00,61.2,46.8,29.85,NNW,333,6.0,14.5,59,0.00,,,-99.99,FreeWX-Wi 1.01,2013-05-14 01:43:00,
2013-05-13 18:53:00,61.0,46.6,29.85,NNW,337,6.0,11.0,59,0.00,,,-99.99,FreeWX-Wi 1.01,2013-05-14 01:53:00,
2013-05-13 19:03:00,60.8,46.4,29.85,North,350,5.0,11.4,59,0.00,,,-99.99,FreeWX-Wi 1.01,2013-05-14 02:03:00,
2013-05-13 19:13:00,60.6,46.2,29.85,North,7,4.0,10.5,59,0.00,,,-99.99,FreeWX-Wi 1.01,2013-05-14 02:13:00,
2013-05-13 19:23:00,60.6,46.2,29.85,NNE,30,3.0,6.3,59,0.00,,,-99.99,FreeWX-Wi 1.01,2013-05-14 02:23:00,
2013-05-13 19:33:00,60.4,46.4,29.85,East,99,2.0,6.3,60,0.00,,,-99.99,FreeWX-Wi 1.01,2013-05-14 02:33:00,
2013-05-13 19:43:00,60.4,46.4,29.85,SSE,148,2.0,6.3,60,0.00,,,-99.99,FreeWX-Wi 1.01,2013-05-14 02:43:00,
2013-05-13 19:53:00,60.3,46.4,29.85,South,179,1.0,4.0,60,0.00,,,-99.99,FreeWX-Wi 1.01,2013-05-14 02:53:00,
2013-05-13 20:03:00,59.9,46.8,29.85,SW,226,1.0,5.8,62,0.00,,,-99.99,FreeWX-Wi 1.01,2013-05-14 03:03:00,
2013-05-13 20:13:00,59.5,46.9,29.85,SW,224,1.0,5.8,63,0.00,,,-99.99,FreeWX-Wi 1.01,2013-05-14 03:13:00,
2013-05-13 20:23:00,59.2,46.9,29.85,WSW,244,1.0,4.9,64,0.00,,,-99.99,FreeWX-Wi 1.01,2013-05-14 03:23:00,
2013-05-13 20:33:00,59.0,47.3,29.85,SW,234,1.0,5.4,65,0.00,,,-99.99,FreeWX-Wi 1.01,2013-05-14 03:33:00,
2013-05-13 20:43:00,58.8,47.5,29.85,SW,218,1.0,6.3,66,0.00,,,-99.99,FreeWX-Wi 1.01,2013-05-14 03:43:00,
2013-05-13 20:53:00,58.6,47.7,29.85,SSW,210,1.0,3.1,67,0.00,,,-99.99,FreeWX-Wi 1.01,2013-05-14 03:53:00,
2013-05-13 21:03:00,58.5,47.5,29.85,North,-999,0.0,4.0,67,0.00,,,-99.99,FreeWX-Wi 1.01,2013-05-14 04:03:00,
2013-05-13 21:13:00,58.5,48.0,29.85,West,280,1.0,6.3,68,0.00,,,-99.99,FreeWX-Wi 1.01,2013-05-14 04:13:00,
2013-05-13 21:23:00,58.5,48.0,29.85,WNW,301,1.0,4.5,68,0.00,,,-99.99,FreeWX-Wi 1.01,2013-05-14 04:23:00,
2013-05-13 21:33:00,58.5,48.0,29.85,NW,320,1.0,4.0,68,0.00,,,-99.99,FreeWX-Wi 1.01,2013-05-14 04:33:00,
2013-05-13 21:43:00,58.5,48.0,29.85,North,-999,0.0,3.1,68,0.00,,,-99.99,FreeWX-Wi 1.01,2013-05-14 04:43:00,
2013-05-13 21:53:00,58.5,48.0,29.85,North,-999,0.0,4.0,68,0.00,,,-99.99,FreeWX-Wi 1.01,2013-05-14 04:53:00,
2013-05-13 22:03:00,58.5,48.0,29.85,North,-999,0.0,0.0,68,0.00,,,-99.99,FreeWX-Wi 1.01,2013-05-14 05:03:00,
2013-05-13 22:13:00,58.3,47.8,29.85,North,-999,0.0,3.1,68,0.00,,,-99.99,FreeWX-Wi 1.01,2013-05-14 05:13:00,
2013-05-13 22:23:00,58.3,48.2,29.85,North,-999,0.0,0.0,69,0.00,,,-99.99,FreeWX-Wi 1.01,2013-05-14 05:23:00,
2013-05-13 22:33:00,58.1,48.0,29.85,North,-999,0.0,0.0,69,0.00,,,-99.99,FreeWX-Wi 1.01,2013-05-14 05:33:00,
2013-05-13 22:43:00,57.9,47.8,29.85,North,-999,0.0,0.0,69,0.00,,,-99.99,FreeWX-Wi 1.01,2013-05-14 05:43:00,
2013-05-13 22:53:00,57.9,47.8,29.85,North,-999,0.0,2.7,69,0.00,,,-99.99,FreeWX-Wi 1.01,2013-05-14 05:53:00,
2013-05-13 23:03:00,57.7,47.7,29.85,North,-999,0.0,3.1,69,0.00,,,-99.99,FreeWX-Wi 1.01,2013-05-14 06:03:00,
2013-05-13 23:13:00,57.6,47.8,29.85,North,-999,0.0,3.1,70,0.00,,,-99.99,FreeWX-Wi 1.01,2013-05-14 06:13:00,
2013-05-13 23:23:00,57.2,47.5,29.85,North,-999,0.0,4.0,70,0.00,,,-99.99,FreeWX-Wi 1.01,2013-05-14 06:23:00,
2013-05-13 23:33:00,57.0,47.7,29.85,North,-999,0.0,2.2,71,0.00,,,-99.99,FreeWX-Wi 1.01,2013-05-14 06:33:00,
2013-05-13 23:43:00,56.7,47.7,29.85,North,-999,0.0,0.0,72,0.00,,,-99.99,FreeWX-Wi 1.01,2013-05-14 06:43:00,
2013-05-13 23:53:00,56.7,48.0,29.85,North,-999,0.0,0.0,73,0.00,,,-99.99,FreeWX-Wi 1.01,2013-05-14 06:53:00,